sensor_id;sensor_type;location;lat;lon;timestamp;temperature;humidity
66088;DHT22;52872;52.994;6.940;2023-04-28T00:00:50;8.00;99.90
66088;DHT22;52872;52.994;6.940;2023-04-28T00:03:18;8.00;99.90
66088;DHT22;52872;52.994;6.940;2023-04-28T00:05:45;8.00;99.90
66088;DHT22;52872;52.994;6.940;2023-04-28T00:08:13;8.00;99.90
66088;DHT22;52872;52.994;6.940;2023-04-28T00:10:40;8.00;99.90
66088;DHT22;52872;52.994;6.940;2023-04-28T00:13:07;8.00;99.90
66088;DHT22;52872;52.994;6.940;2023-04-28T00:15:33;8.00;99.90
66088;DHT22;52872;52.994;6.940;2023-04-28T00:18:00;7.90;99.90
66088;DHT22;52872;52.994;6.940;2023-04-28T00:20:27;7.90;99.90
66088;DHT22;52872;52.994;6.940;2023-04-28T00:22:54;7.90;99.90
66088;DHT22;52872;52.994;6.940;2023-04-28T00:25:21;7.90;99.90
66088;DHT22;52872;52.994;6.940;2023-04-28T00:27:48;7.90;99.90
66088;DHT22;52872;52.994;6.940;2023-04-28T00:30:15;7.90;99.90
66088;DHT22;52872;52.994;6.940;2023-04-28T00:32:42;7.90;99.90
66088;DHT22;52872;52.994;6.940;2023-04-28T00:35:10;7.90;99.90
66088;DHT22;52872;52.994;6.940;2023-04-28T00:37:37;7.90;99.90
66088;DHT22;52872;52.994;6.940;2023-04-28T00:40:05;7.90;99.90
66088;DHT22;52872;52.994;6.940;2023-04-28T00:42:32;8.00;99.90
66088;DHT22;52872;52.994;6.940;2023-04-28T00:44:59;7.90;99.90
66088;DHT22;52872;52.994;6.940;2023-04-28T00:47:35;7.80;99.90
66088;DHT22;52872;52.994;6.940;2023-04-28T00:50:03;7.90;99.90
66088;DHT22;52872;52.994;6.940;2023-04-28T00:52:34;7.80;99.90
66088;DHT22;52872;52.994;6.940;2023-04-28T00:55:01;7.80;99.90
66088;DHT22;52872;52.994;6.940;2023-04-28T00:57:30;7.80;99.90
66088;DHT22;52872;52.994;6.940;2023-04-28T00:59:58;7.80;99.90
66088;DHT22;52872;52.994;6.940;2023-04-28T01:02:26;7.80;99.90
66088;DHT22;52872;52.994;6.940;2023-04-28T01:04:56;7.80;99.90
66088;DHT22;52872;52.994;6.940;2023-04-28T01:07:24;7.80;99.90
66088;DHT22;52872;52.994;6.940;2023-04-28T01:09:51;7.80;99.90
66088;DHT22;52872;52.994;6.940;2023-04-28T01:12:23;7.80;99.90
66088;DHT22;52872;52.994;6.940;2023-04-28T01:14:53;7.80;99.90
66088;DHT22;52872;52.994;6.940;2023-04-28T01:17:20;7.80;99.90
66088;DHT22;52872;52.994;6.940;2023-04-28T01:19:47;7.80;99.90
66088;DHT22;52872;52.994;6.940;2023-04-28T01:22:14;7.80;99.90
66088;DHT22;52872;52.994;6.940;2023-04-28T01:24:43;7.80;99.90
66088;DHT22;52872;52.994;6.940;2023-04-28T01:27:12;7.80;99.90
66088;DHT22;52872;52.994;6.940;2023-04-28T01:29:40;7.80;99.90
66088;DHT22;52872;52.994;6.940;2023-04-28T01:32:07;7.80;99.90
66088;DHT22;52872;52.994;6.940;2023-04-28T01:34:34;7.70;99.90
66088;DHT22;52872;52.994;6.940;2023-04-28T01:37:04;7.70;99.90
66088;DHT22;52872;52.994;6.940;2023-04-28T01:39:31;7.80;99.90
66088;DHT22;52872;52.994;6.940;2023-04-28T01:41:58;7.80;99.90
66088;DHT22;52872;52.994;6.940;2023-04-28T01:44:25;7.80;99.90
66088;DHT22;52872;52.994;6.940;2023-04-28T01:46:52;7.80;99.90
66088;DHT22;52872;52.994;6.940;2023-04-28T01:49:20;7.80;99.90
66088;DHT22;52872;52.994;6.940;2023-04-28T01:51:47;7.80;99.90
66088;DHT22;52872;52.994;6.940;2023-04-28T01:54:14;7.80;99.90
66088;DHT22;52872;52.994;6.940;2023-04-28T01:56:42;7.80;99.90
66088;DHT22;52872;52.994;6.940;2023-04-28T01:59:11;7.80;99.90
66088;DHT22;52872;52.994;6.940;2023-04-28T02:01:38;7.80;99.90
66088;DHT22;52872;52.994;6.940;2023-04-28T02:04:05;7.80;99.90
66088;DHT22;52872;52.994;6.940;2023-04-28T02:06:34;7.80;99.90
66088;DHT22;52872;52.994;6.940;2023-04-28T02:09:01;7.70;99.90
66088;DHT22;52872;52.994;6.940;2023-04-28T02:11:28;7.70;99.90
66088;DHT22;52872;52.994;6.940;2023-04-28T02:13:56;7.70;99.90
66088;DHT22;52872;52.994;6.940;2023-04-28T02:16:23;7.70;99.90
66088;DHT22;52872;52.994;6.940;2023-04-28T02:18:50;7.70;99.90
66088;DHT22;52872;52.994;6.940;2023-04-28T02:21:18;7.70;99.90
66088;DHT22;52872;52.994;6.940;2023-04-28T02:23:45;7.70;99.90
66088;DHT22;52872;52.994;6.940;2023-04-28T02:26:12;7.60;99.90
66088;DHT22;52872;52.994;6.940;2023-04-28T02:28:40;7.60;99.90
66088;DHT22;52872;52.994;6.940;2023-04-28T02:31:09;7.60;99.90
66088;DHT22;52872;52.994;6.940;2023-04-28T02:33:37;7.60;99.90
66088;DHT22;52872;52.994;6.940;2023-04-28T02:36:05;7.50;99.90
66088;DHT22;52872;52.994;6.940;2023-04-28T02:38:32;7.50;99.90
66088;DHT22;52872;52.994;6.940;2023-04-28T02:41:03;7.50;99.90
66088;DHT22;52872;52.994;6.940;2023-04-28T02:43:32;7.50;99.90
66088;DHT22;52872;52.994;6.940;2023-04-28T02:45:59;7.50;99.90
66088;DHT22;52872;52.994;6.940;2023-04-28T02:48:26;7.50;99.90
66088;DHT22;52872;52.994;6.940;2023-04-28T02:50:53;7.40;99.90
66088;DHT22;52872;52.994;6.940;2023-04-28T02:53:21;7.40;99.90
66088;DHT22;52872;52.994;6.940;2023-04-28T02:55:49;7.40;99.90
66088;DHT22;52872;52.994;6.940;2023-04-28T02:58:16;7.50;99.90
66088;DHT22;52872;52.994;6.940;2023-04-28T03:00:44;7.50;99.90
66088;DHT22;52872;52.994;6.940;2023-04-28T03:03:12;7.50;99.90
66088;DHT22;52872;52.994;6.940;2023-04-28T03:05:39;7.40;99.90
66088;DHT22;52872;52.994;6.940;2023-04-28T03:08:06;7.40;99.90
66088;DHT22;52872;52.994;6.940;2023-04-28T03:10:33;7.40;99.90
66088;DHT22;52872;52.994;6.940;2023-04-28T03:13:01;7.50;99.90
66088;DHT22;52872;52.994;6.940;2023-04-28T03:15:29;7.50;99.90
66088;DHT22;52872;52.994;6.940;2023-04-28T03:17:56;7.50;99.90
66088;DHT22;52872;52.994;6.940;2023-04-28T03:20:23;7.40;99.90
66088;DHT22;52872;52.994;6.940;2023-04-28T03:22:50;7.40;99.90
66088;DHT22;52872;52.994;6.940;2023-04-28T03:25:17;7.40;99.90
66088;DHT22;52872;52.994;6.940;2023-04-28T03:27:47;7.30;99.90
66088;DHT22;52872;52.994;6.940;2023-04-28T03:30:14;7.30;99.90
66088;DHT22;52872;52.994;6.940;2023-04-28T03:32:41;7.30;99.90
66088;DHT22;52872;52.994;6.940;2023-04-28T03:35:08;7.20;99.90
66088;DHT22;52872;52.994;6.940;2023-04-28T03:37:37;7.20;99.90
66088;DHT22;52872;52.994;6.940;2023-04-28T03:40:05;7.20;99.90
66088;DHT22;52872;52.994;6.940;2023-04-28T03:42:48;7.20;99.90
66088;DHT22;52872;52.994;6.940;2023-04-28T03:45:22;7.20;99.90
66088;DHT22;52872;52.994;6.940;2023-04-28T03:47:50;7.20;99.90
66088;DHT22;52872;52.994;6.940;2023-04-28T03:50:17;7.20;99.90
66088;DHT22;52872;52.994;6.940;2023-04-28T03:52:44;7.20;99.90
66088;DHT22;52872;52.994;6.940;2023-04-28T03:55:12;7.20;99.90
66088;DHT22;52872;52.994;6.940;2023-04-28T03:57:40;7.30;99.90
66088;DHT22;52872;52.994;6.940;2023-04-28T04:00:07;7.30;99.90
66088;DHT22;52872;52.994;6.940;2023-04-28T04:02:40;7.30;99.90
66088;DHT22;52872;52.994;6.940;2023-04-28T04:05:08;7.30;99.90
66088;DHT22;52872;52.994;6.940;2023-04-28T04:07:35;7.30;99.90
66088;DHT22;52872;52.994;6.940;2023-04-28T04:10:03;7.30;99.90
66088;DHT22;52872;52.994;6.940;2023-04-28T04:12:32;7.40;99.90
66088;DHT22;52872;52.994;6.940;2023-04-28T04:14:59;7.40;99.90
66088;DHT22;52872;52.994;6.940;2023-04-28T04:17:26;7.40;99.90
66088;DHT22;52872;52.994;6.940;2023-04-28T04:19:53;7.40;99.90
66088;DHT22;52872;52.994;6.940;2023-04-28T04:22:20;7.50;99.90
66088;DHT22;52872;52.994;6.940;2023-04-28T04:24:47;7.50;99.90
66088;DHT22;52872;52.994;6.940;2023-04-28T04:27:14;7.50;99.90
66088;DHT22;52872;52.994;6.940;2023-04-28T04:29:41;7.50;99.90
66088;DHT22;52872;52.994;6.940;2023-04-28T04:32:12;7.60;99.90
66088;DHT22;52872;52.994;6.940;2023-04-28T04:34:41;7.60;99.90
66088;DHT22;52872;52.994;6.940;2023-04-28T04:37:08;7.60;99.90
66088;DHT22;52872;52.994;6.940;2023-04-28T04:39:41;7.70;99.90
66088;DHT22;52872;52.994;6.940;2023-04-28T04:42:08;7.70;99.90
66088;DHT22;52872;52.994;6.940;2023-04-28T04:45:18;7.80;99.90
66088;DHT22;52872;52.994;6.940;2023-04-28T04:47:46;7.70;99.90
66088;DHT22;52872;52.994;6.940;2023-04-28T04:50:13;7.80;99.90
66088;DHT22;52872;52.994;6.940;2023-04-28T04:52:40;7.90;99.90
66088;DHT22;52872;52.994;6.940;2023-04-28T04:55:08;8.00;99.90
66088;DHT22;52872;52.994;6.940;2023-04-28T04:57:39;8.10;99.90
66088;DHT22;52872;52.994;6.940;2023-04-28T05:00:06;8.10;99.90
66088;DHT22;52872;52.994;6.940;2023-04-28T05:02:33;8.10;99.90
66088;DHT22;52872;52.994;6.940;2023-04-28T05:05:03;8.10;99.90
66088;DHT22;52872;52.994;6.940;2023-04-28T05:07:45;8.10;99.90
66088;DHT22;52872;52.994;6.940;2023-04-28T05:10:13;8.10;99.90
66088;DHT22;52872;52.994;6.940;2023-04-28T05:12:40;8.00;99.90
66088;DHT22;52872;52.994;6.940;2023-04-28T05:15:08;8.00;99.90
66088;DHT22;52872;52.994;6.940;2023-04-28T05:17:39;8.10;99.90
66088;DHT22;52872;52.994;6.940;2023-04-28T05:20:06;8.00;99.90
66088;DHT22;52872;52.994;6.940;2023-04-28T05:22:33;8.00;99.90
66088;DHT22;52872;52.994;6.940;2023-04-28T05:25:00;8.00;99.90
66088;DHT22;52872;52.994;6.940;2023-04-28T05:27:27;8.00;99.90
66088;DHT22;52872;52.994;6.940;2023-04-28T05:29:54;8.00;99.90
66088;DHT22;52872;52.994;6.940;2023-04-28T05:32:21;8.10;99.90
66088;DHT22;52872;52.994;6.940;2023-04-28T05:34:49;8.10;99.90
66088;DHT22;52872;52.994;6.940;2023-04-28T05:37:16;8.10;99.90
66088;DHT22;52872;52.994;6.940;2023-04-28T05:39:44;8.10;99.90
66088;DHT22;52872;52.994;6.940;2023-04-28T05:42:12;8.20;99.90
66088;DHT22;52872;52.994;6.940;2023-04-28T05:44:39;8.20;99.90
66088;DHT22;52872;52.994;6.940;2023-04-28T05:47:08;8.30;99.90
66088;DHT22;52872;52.994;6.940;2023-04-28T05:49:36;8.40;99.90
66088;DHT22;52872;52.994;6.940;2023-04-28T05:52:04;8.60;99.90
66088;DHT22;52872;52.994;6.940;2023-04-28T05:54:32;8.80;99.90
66088;DHT22;52872;52.994;6.940;2023-04-28T05:57:00;8.90;99.90
66088;DHT22;52872;52.994;6.940;2023-04-28T05:59:28;9.10;99.90
66088;DHT22;52872;52.994;6.940;2023-04-28T06:01:57;9.30;99.90
66088;DHT22;52872;52.994;6.940;2023-04-28T06:04:24;9.50;99.90
66088;DHT22;52872;52.994;6.940;2023-04-28T06:06:52;9.60;99.90
66088;DHT22;52872;52.994;6.940;2023-04-28T06:09:19;9.70;99.90
66088;DHT22;52872;52.994;6.940;2023-04-28T06:11:46;9.70;99.90
66088;DHT22;52872;52.994;6.940;2023-04-28T06:14:13;9.70;99.90
66088;DHT22;52872;52.994;6.940;2023-04-28T06:16:41;9.80;99.90
66088;DHT22;52872;52.994;6.940;2023-04-28T06:19:08;9.80;99.90
66088;DHT22;52872;52.994;6.940;2023-04-28T06:21:35;9.90;99.90
66088;DHT22;52872;52.994;6.940;2023-04-28T06:24:03;9.90;99.90
66088;DHT22;52872;52.994;6.940;2023-04-28T06:26:30;9.90;99.90
66088;DHT22;52872;52.994;6.940;2023-04-28T06:28:57;10.00;99.90
66088;DHT22;52872;52.994;6.940;2023-04-28T06:31:24;10.00;99.90
66088;DHT22;52872;52.994;6.940;2023-04-28T06:33:52;10.10;99.90
66088;DHT22;52872;52.994;6.940;2023-04-28T06:36:21;10.10;99.90
66088;DHT22;52872;52.994;6.940;2023-04-28T06:38:48;10.10;99.90
66088;DHT22;52872;52.994;6.940;2023-04-28T06:41:15;10.20;99.90
66088;DHT22;52872;52.994;6.940;2023-04-28T06:43:46;10.30;99.90
66088;DHT22;52872;52.994;6.940;2023-04-28T06:46:33;10.20;99.90
66088;DHT22;52872;52.994;6.940;2023-04-28T06:49:00;10.20;99.90
66088;DHT22;52872;52.994;6.940;2023-04-28T06:51:27;10.20;99.90
66088;DHT22;52872;52.994;6.940;2023-04-28T06:53:54;10.20;99.90
66088;DHT22;52872;52.994;6.940;2023-04-28T06:56:21;10.20;99.90
66088;DHT22;52872;52.994;6.940;2023-04-28T06:58:49;10.10;99.90
66088;DHT22;52872;52.994;6.940;2023-04-28T07:01:16;10.10;99.90
66088;DHT22;52872;52.994;6.940;2023-04-28T07:03:43;10.10;99.90
66088;DHT22;52872;52.994;6.940;2023-04-28T07:06:10;10.10;99.90
66088;DHT22;52872;52.994;6.940;2023-04-28T07:08:38;10.00;99.90
66088;DHT22;52872;52.994;6.940;2023-04-28T07:11:05;10.10;99.90
66088;DHT22;52872;52.994;6.940;2023-04-28T07:13:32;10.10;99.90
66088;DHT22;52872;52.994;6.940;2023-04-28T07:16:00;10.20;99.90
66088;DHT22;52872;52.994;6.940;2023-04-28T07:18:27;10.30;99.90
66088;DHT22;52872;52.994;6.940;2023-04-28T07:20:54;10.30;99.90
66088;DHT22;52872;52.994;6.940;2023-04-28T07:23:21;10.40;99.90
66088;DHT22;52872;52.994;6.940;2023-04-28T07:25:48;10.40;99.90
66088;DHT22;52872;52.994;6.940;2023-04-28T07:28:15;10.50;99.90
66088;DHT22;52872;52.994;6.940;2023-04-28T07:30:42;10.60;99.90
66088;DHT22;52872;52.994;6.940;2023-04-28T07:33:09;10.60;99.90
66088;DHT22;52872;52.994;6.940;2023-04-28T07:35:36;10.80;99.90
66088;DHT22;52872;52.994;6.940;2023-04-28T07:38:03;10.90;99.90
66088;DHT22;52872;52.994;6.940;2023-04-28T07:40:30;11.10;99.90
66088;DHT22;52872;52.994;6.940;2023-04-28T07:42:57;11.30;99.90
66088;DHT22;52872;52.994;6.940;2023-04-28T07:45:24;11.40;99.90
66088;DHT22;52872;52.994;6.940;2023-04-28T07:47:51;11.50;99.90
66088;DHT22;52872;52.994;6.940;2023-04-28T07:50:18;11.50;99.90
66088;DHT22;52872;52.994;6.940;2023-04-28T07:52:45;11.50;99.90
66088;DHT22;52872;52.994;6.940;2023-04-28T07:55:12;11.60;99.90
66088;DHT22;52872;52.994;6.940;2023-04-28T07:57:39;11.60;99.90
66088;DHT22;52872;52.994;6.940;2023-04-28T08:00:08;11.60;99.90
66088;DHT22;52872;52.994;6.940;2023-04-28T08:02:38;11.60;99.90
66088;DHT22;52872;52.994;6.940;2023-04-28T08:05:05;11.50;99.90
66088;DHT22;52872;52.994;6.940;2023-04-28T08:07:35;11.60;99.90
66088;DHT22;52872;52.994;6.940;2023-04-28T08:10:03;11.60;99.90
66088;DHT22;52872;52.994;6.940;2023-04-28T08:12:30;11.70;99.90
66088;DHT22;52872;52.994;6.940;2023-04-28T08:14:58;11.80;99.90
66088;DHT22;52872;52.994;6.940;2023-04-28T08:17:25;11.90;99.90
66088;DHT22;52872;52.994;6.940;2023-04-28T08:19:52;12.00;99.90
66088;DHT22;52872;52.994;6.940;2023-04-28T08:22:19;12.10;99.90
66088;DHT22;52872;52.994;6.940;2023-04-28T08:24:46;12.20;99.90
66088;DHT22;52872;52.994;6.940;2023-04-28T08:27:13;12.30;99.90
66088;DHT22;52872;52.994;6.940;2023-04-28T08:29:40;12.50;99.90
66088;DHT22;52872;52.994;6.940;2023-04-28T08:32:07;12.60;99.90
66088;DHT22;52872;52.994;6.940;2023-04-28T08:34:34;12.70;99.90
66088;DHT22;52872;52.994;6.940;2023-04-28T08:37:01;12.90;99.90
66088;DHT22;52872;52.994;6.940;2023-04-28T08:39:29;13.00;99.90
66088;DHT22;52872;52.994;6.940;2023-04-28T08:41:57;13.20;99.90
66088;DHT22;52872;52.994;6.940;2023-04-28T08:44:24;13.40;99.90
66088;DHT22;52872;52.994;6.940;2023-04-28T08:46:53;13.50;99.80
66088;DHT22;52872;52.994;6.940;2023-04-28T08:49:24;13.80;99.60
66088;DHT22;52872;52.994;6.940;2023-04-28T08:51:58;14.00;99.30
66088;DHT22;52872;52.994;6.940;2023-04-28T08:54:30;14.40;99.00
66088;DHT22;52872;52.994;6.940;2023-04-28T08:56:58;14.60;98.40
66088;DHT22;52872;52.994;6.940;2023-04-28T08:59:25;14.80;98.20
66088;DHT22;52872;52.994;6.940;2023-04-28T09:01:52;15.00;97.70
66088;DHT22;52872;52.994;6.940;2023-04-28T09:04:19;15.20;97.20
66088;DHT22;52872;52.994;6.940;2023-04-28T09:06:47;15.30;97.30
66088;DHT22;52872;52.994;6.940;2023-04-28T09:14:17;15.10;97.30
66088;DHT22;52872;52.994;6.940;2023-04-28T09:16:45;15.10;97.60
66088;DHT22;52872;52.994;6.940;2023-04-28T09:19:12;15.00;98.20
66088;DHT22;52872;52.994;6.940;2023-04-28T09:21:58;15.00;99.30
66088;DHT22;52872;52.994;6.940;2023-04-28T09:24:37;15.10;99.50
66088;DHT22;52872;52.994;6.940;2023-04-28T09:27:09;15.00;99.70
66088;DHT22;52872;52.994;6.940;2023-04-28T09:29:38;15.10;99.70
66088;DHT22;52872;52.994;6.940;2023-04-28T09:32:18;15.10;99.80
66088;DHT22;52872;52.994;6.940;2023-04-28T09:34:53;15.30;99.90
66088;DHT22;52872;52.994;6.940;2023-04-28T09:37:24;15.10;99.90
66088;DHT22;52872;52.994;6.940;2023-04-28T09:39:53;15.00;99.90
66088;DHT22;52872;52.994;6.940;2023-04-28T09:42:43;15.10;99.90
66088;DHT22;52872;52.994;6.940;2023-04-28T09:45:14;15.40;99.80
66088;DHT22;52872;52.994;6.940;2023-04-28T09:47:43;15.50;99.90
66088;DHT22;52872;52.994;6.940;2023-04-28T09:50:13;15.70;99.90
66088;DHT22;52872;52.994;6.940;2023-04-28T09:52:42;15.90;99.40
66088;DHT22;52872;52.994;6.940;2023-04-28T09:55:12;16.00;99.00
66088;DHT22;52872;52.994;6.940;2023-04-28T09:57:39;15.90;98.70
66088;DHT22;52872;52.994;6.940;2023-04-28T10:00:07;15.90;98.40
66088;DHT22;52872;52.994;6.940;2023-04-28T10:02:36;16.00;98.50
66088;DHT22;52872;52.994;6.940;2023-04-28T10:05:07;16.10;98.80
66088;DHT22;52872;52.994;6.940;2023-04-28T10:07:36;16.10;98.60
66088;DHT22;52872;52.994;6.940;2023-04-28T10:10:03;16.10;98.50
66088;DHT22;52872;52.994;6.940;2023-04-28T10:12:31;16.10;98.60
66088;DHT22;52872;52.994;6.940;2023-04-28T10:14:59;16.10;98.00
66088;DHT22;52872;52.994;6.940;2023-04-28T10:17:26;16.20;98.20
66088;DHT22;52872;52.994;6.940;2023-04-28T10:19:55;16.50;98.10
66088;DHT22;52872;52.994;6.940;2023-04-28T10:25:27;16.70;97.90
66088;DHT22;52872;52.994;6.940;2023-04-28T10:27:54;17.00;97.50
66088;DHT22;52872;52.994;6.940;2023-04-28T10:30:23;17.20;97.50
66088;DHT22;52872;52.994;6.940;2023-04-28T10:35:46;17.60;96.80
66088;DHT22;52872;52.994;6.940;2023-04-28T10:40:46;17.40;96.80
66088;DHT22;52872;52.994;6.940;2023-04-28T10:56:16;17.10;97.50
66088;DHT22;52872;52.994;6.940;2023-04-28T10:58:55;17.30;97.40
66088;DHT22;52872;52.994;6.940;2023-04-28T11:01:24;17.70;97.00
66088;DHT22;52872;52.994;6.940;2023-04-28T11:04:04;17.80;97.10
66088;DHT22;52872;52.994;6.940;2023-04-28T11:06:47;17.80;97.20
66088;DHT22;52872;52.994;6.940;2023-04-28T11:16:56;18.40;96.50
66088;DHT22;52872;52.994;6.940;2023-04-28T11:19:31;18.60;96.40
66088;DHT22;52872;52.994;6.940;2023-04-28T11:22:12;18.90;96.10
66088;DHT22;52872;52.994;6.940;2023-04-28T11:24:39;19.10;95.60
66088;DHT22;52872;52.994;6.940;2023-04-28T11:27:06;19.10;95.60
66088;DHT22;52872;52.994;6.940;2023-04-28T11:29:36;19.10;95.60
66088;DHT22;52872;52.994;6.940;2023-04-28T11:32:04;19.10;95.40
66088;DHT22;52872;52.994;6.940;2023-04-28T11:34:33;19.10;95.40
66088;DHT22;52872;52.994;6.940;2023-04-28T11:37:01;18.80;95.70
66088;DHT22;52872;52.994;6.940;2023-04-28T11:39:33;18.90;95.80
66088;DHT22;52872;52.994;6.940;2023-04-28T11:42:08;18.90;95.70
66088;DHT22;52872;52.994;6.940;2023-04-28T11:44:35;18.90;96.00
66088;DHT22;52872;52.994;6.940;2023-04-28T11:47:03;18.70;95.90
66088;DHT22;52872;52.994;6.940;2023-04-28T11:49:43;18.80;95.90
66088;DHT22;52872;52.994;6.940;2023-04-28T11:52:11;18.90;95.80
66088;DHT22;52872;52.994;6.940;2023-04-28T11:54:39;18.90;96.00
66088;DHT22;52872;52.994;6.940;2023-04-28T11:57:20;18.90;95.90
66088;DHT22;52872;52.994;6.940;2023-04-28T11:59:47;18.90;96.00
66088;DHT22;52872;52.994;6.940;2023-04-28T12:02:26;18.60;96.20
66088;DHT22;52872;52.994;6.940;2023-04-28T12:04:55;18.40;96.50
66088;DHT22;52872;52.994;6.940;2023-04-28T12:07:22;18.10;96.70
66088;DHT22;52872;52.994;6.940;2023-04-28T12:10:13;18.00;97.00
66088;DHT22;52872;52.994;6.940;2023-04-28T12:12:41;18.00;97.10
66088;DHT22;52872;52.994;6.940;2023-04-28T12:15:17;17.90;97.20
66088;DHT22;52872;52.994;6.940;2023-04-28T12:17:46;17.90;96.80
66088;DHT22;52872;52.994;6.940;2023-04-28T12:20:40;18.10;96.80
66088;DHT22;52872;52.994;6.940;2023-04-28T12:23:08;18.40;96.50
66088;DHT22;52872;52.994;6.940;2023-04-28T12:25:44;18.30;96.50
66088;DHT22;52872;52.994;6.940;2023-04-28T12:28:12;18.50;96.30
66088;DHT22;52872;52.994;6.940;2023-04-28T12:30:39;18.40;96.40
66088;DHT22;52872;52.994;6.940;2023-04-28T12:33:25;18.60;96.10
66088;DHT22;52872;52.994;6.940;2023-04-28T12:35:53;18.80;95.60
66088;DHT22;52872;52.994;6.940;2023-04-28T12:38:21;18.90;95.70
66088;DHT22;52872;52.994;6.940;2023-04-28T12:40:48;19.00;95.70
66088;DHT22;52872;52.994;6.940;2023-04-28T12:43:15;18.90;95.50
66088;DHT22;52872;52.994;6.940;2023-04-28T12:45:42;18.70;95.70
66088;DHT22;52872;52.994;6.940;2023-04-28T12:48:09;18.50;96.10
66088;DHT22;52872;52.994;6.940;2023-04-28T12:50:36;18.30;96.30
66088;DHT22;52872;52.994;6.940;2023-04-28T12:53:03;18.00;96.60
66088;DHT22;52872;52.994;6.940;2023-04-28T12:55:30;17.90;97.00
66088;DHT22;52872;52.994;6.940;2023-04-28T12:57:57;17.80;97.70
66088;DHT22;52872;52.994;6.940;2023-04-28T13:00:25;18.00;98.00
66088;DHT22;52872;52.994;6.940;2023-04-28T13:02:52;18.20;98.10
66088;DHT22;52872;52.994;6.940;2023-04-28T13:05:19;18.30;97.90
66088;DHT22;52872;52.994;6.940;2023-04-28T13:07:46;18.50;97.60
66088;DHT22;52872;52.994;6.940;2023-04-28T13:10:15;18.60;97.20
66088;DHT22;52872;52.994;6.940;2023-04-28T13:12:42;18.30;97.60
66088;DHT22;52872;52.994;6.940;2023-04-28T13:15:09;18.00;98.00
66088;DHT22;52872;52.994;6.940;2023-04-28T13:17:36;17.80;98.50
66088;DHT22;52872;52.994;6.940;2023-04-28T13:20:04;17.70;99.10
66088;DHT22;52872;52.994;6.940;2023-04-28T13:22:32;17.50;99.80
66088;DHT22;52872;52.994;6.940;2023-04-28T13:24:59;17.50;99.90
66088;DHT22;52872;52.994;6.940;2023-04-28T13:27:26;17.50;99.90
66088;DHT22;52872;52.994;6.940;2023-04-28T13:29:55;17.60;99.90
66088;DHT22;52872;52.994;6.940;2023-04-28T13:32:25;17.80;99.90
66088;DHT22;52872;52.994;6.940;2023-04-28T13:34:53;17.90;99.90
66088;DHT22;52872;52.994;6.940;2023-04-28T13:37:20;18.00;99.90
66088;DHT22;52872;52.994;6.940;2023-04-28T13:39:47;18.00;99.90
66088;DHT22;52872;52.994;6.940;2023-04-28T13:42:14;17.90;99.90
66088;DHT22;52872;52.994;6.940;2023-04-28T13:44:41;17.80;99.90
66088;DHT22;52872;52.994;6.940;2023-04-28T13:47:08;17.50;99.90
66088;DHT22;52872;52.994;6.940;2023-04-28T13:49:36;17.40;99.90
66088;DHT22;52872;52.994;6.940;2023-04-28T13:52:05;17.30;99.90
66088;DHT22;52872;52.994;6.940;2023-04-28T13:54:32;17.10;99.90
66088;DHT22;52872;52.994;6.940;2023-04-28T13:56:59;17.00;99.90
66088;DHT22;52872;52.994;6.940;2023-04-28T13:59:27;17.00;99.90
66088;DHT22;52872;52.994;6.940;2023-04-28T14:01:53;16.90;99.90
66088;DHT22;52872;52.994;6.940;2023-04-28T14:04:20;16.90;99.90
66088;DHT22;52872;52.994;6.940;2023-04-28T14:06:48;16.80;99.90
66088;DHT22;52872;52.994;6.940;2023-04-28T14:09:16;16.70;99.90
66088;DHT22;52872;52.994;6.940;2023-04-28T14:11:43;16.70;99.90
66088;DHT22;52872;52.994;6.940;2023-04-28T14:14:10;16.60;99.90
66088;DHT22;52872;52.994;6.940;2023-04-28T14:16:37;16.70;99.90
66088;DHT22;52872;52.994;6.940;2023-04-28T14:19:04;16.70;99.90
66088;DHT22;52872;52.994;6.940;2023-04-28T14:21:33;16.60;99.90
66088;DHT22;52872;52.994;6.940;2023-04-28T14:24:00;16.50;99.90
66088;DHT22;52872;52.994;6.940;2023-04-28T14:26:27;16.40;99.90
66088;DHT22;52872;52.994;6.940;2023-04-28T14:28:54;16.40;99.90
66088;DHT22;52872;52.994;6.940;2023-04-28T14:31:21;16.40;99.90
66088;DHT22;52872;52.994;6.940;2023-04-28T14:33:48;16.30;99.90
66088;DHT22;52872;52.994;6.940;2023-04-28T14:36:15;16.30;99.90
66088;DHT22;52872;52.994;6.940;2023-04-28T14:38:42;16.20;99.90
66088;DHT22;52872;52.994;6.940;2023-04-28T14:41:09;16.30;99.90
66088;DHT22;52872;52.994;6.940;2023-04-28T14:43:36;16.30;99.90
66088;DHT22;52872;52.994;6.940;2023-04-28T14:46:04;16.30;99.90
66088;DHT22;52872;52.994;6.940;2023-04-28T14:48:32;16.30;99.90
66088;DHT22;52872;52.994;6.940;2023-04-28T14:50:59;16.30;99.90
66088;DHT22;52872;52.994;6.940;2023-04-28T14:53:26;16.40;99.90
66088;DHT22;52872;52.994;6.940;2023-04-28T14:55:53;16.40;99.90
66088;DHT22;52872;52.994;6.940;2023-04-28T14:58:25;16.30;99.90
66088;DHT22;52872;52.994;6.940;2023-04-28T15:00:52;16.20;99.90
66088;DHT22;52872;52.994;6.940;2023-04-28T15:03:19;16.10;99.90
66088;DHT22;52872;52.994;6.940;2023-04-28T15:05:46;16.10;99.90
66088;DHT22;52872;52.994;6.940;2023-04-28T15:08:13;16.10;99.90
66088;DHT22;52872;52.994;6.940;2023-04-28T15:10:40;16.10;99.90
66088;DHT22;52872;52.994;6.940;2023-04-28T15:13:07;16.10;99.90
66088;DHT22;52872;52.994;6.940;2023-04-28T15:15:34;16.00;99.90
66088;DHT22;52872;52.994;6.940;2023-04-28T15:18:05;15.90;99.90
66088;DHT22;52872;52.994;6.940;2023-04-28T15:20:32;16.00;99.90
66088;DHT22;52872;52.994;6.940;2023-04-28T15:23:00;16.00;99.90
66088;DHT22;52872;52.994;6.940;2023-04-28T15:25:27;15.90;99.90
66088;DHT22;52872;52.994;6.940;2023-04-28T15:27:54;15.90;99.90
66088;DHT22;52872;52.994;6.940;2023-04-28T15:30:21;15.90;99.90
66088;DHT22;52872;52.994;6.940;2023-04-28T15:32:49;15.80;99.90
66088;DHT22;52872;52.994;6.940;2023-04-28T15:35:16;15.90;99.90
66088;DHT22;52872;52.994;6.940;2023-04-28T15:37:44;15.80;99.90
66088;DHT22;52872;52.994;6.940;2023-04-28T15:40:14;15.80;99.90
66088;DHT22;52872;52.994;6.940;2023-04-28T15:42:43;15.80;99.90
66088;DHT22;52872;52.994;6.940;2023-04-28T15:45:21;15.70;99.90
66088;DHT22;52872;52.994;6.940;2023-04-28T15:47:49;15.80;99.90
66088;DHT22;52872;52.994;6.940;2023-04-28T15:50:17;15.70;99.90
66088;DHT22;52872;52.994;6.940;2023-04-28T15:52:45;15.80;99.90
66088;DHT22;52872;52.994;6.940;2023-04-28T15:55:14;15.80;99.90
66088;DHT22;52872;52.994;6.940;2023-04-28T15:57:42;15.90;99.90
66088;DHT22;52872;52.994;6.940;2023-04-28T16:00:10;15.90;99.90
66088;DHT22;52872;52.994;6.940;2023-04-28T16:02:37;15.90;99.90
66088;DHT22;52872;52.994;6.940;2023-04-28T16:05:05;16.00;99.90
66088;DHT22;52872;52.994;6.940;2023-04-28T16:07:33;16.00;99.90
66088;DHT22;52872;52.994;6.940;2023-04-28T16:10:12;16.00;99.90
66088;DHT22;52872;52.994;6.940;2023-04-28T16:12:40;16.10;99.90
66088;DHT22;52872;52.994;6.940;2023-04-28T16:15:10;16.20;99.90
66088;DHT22;52872;52.994;6.940;2023-04-28T16:17:38;16.20;99.90
66088;DHT22;52872;52.994;6.940;2023-04-28T16:20:07;16.10;99.90